sensor_id;sensor_type;location;lat;lon;timestamp;pressure;altitude;pressure_sealevel;temperature;humidity
78679;BME280;67994;59.334;13.528;2023-03-01T00:00:00;102400.0;;;1.3;75.0
78679;BME280;67994;59.334;13.528;2023-03-01T00:01:01;102400.0;;;1.3;74.8
78679;BME280;67994;59.334;13.528;2023-03-01T00:02:00;102400.0;;;1.3;75.0
78679;BME280;67994;59.334;13.528;2023-03-01T00:03:00;102400.0;;;1.5;74.5
78679;BME280;67994;59.334;13.528;2023-03-01T00:04:00;102400.0;;;1.6;74.2
78679;BME280;67994;59.334;13.528;2023-03-01T00:05:00;102400.0;;;1.7;73.9
78679;BME280;67994;59.334;13.528;2023-03-01T00:06:00;102400.0;;;1.6;74.0
78679;BME280;67994;59.334;13.528;2023-03-01T00:07:00;102400.0;;;1.6;74.2
78679;BME280;67994;59.334;13.528;2023-03-01T00:08:00;102400.0;;;1.6;74.2
78679;BME280;67994;59.334;13.528;2023-03-01T00:09:00;102400.0;;;1.6;74.1
78679;BME280;67994;59.334;13.528;2023-03-01T00:10:00;102400.0;;;1.6;74.1
78679;BME280;67994;59.334;13.528;2023-03-01T00:11:01;102400.0;;;1.6;74.3
78679;BME280;67994;59.334;13.528;2023-03-01T00:12:00;102400.0;;;1.7;73.8
78679;BME280;67994;59.334;13.528;2023-03-01T00:13:00;102400.0;;;1.6;74.0
78679;BME280;67994;59.334;13.528;2023-03-01T00:14:02;102400.0;;;1.6;74.1
78679;BME280;67994;59.334;13.528;2023-03-01T00:15:00;102400.0;;;1.6;74.2
78679;BME280;67994;59.334;13.528;2023-03-01T00:16:02;102400.0;;;1.8;73.6
78679;BME280;67994;59.334;13.528;2023-03-01T00:17:00;102400.0;;;1.7;74.0
78679;BME280;67994;59.334;13.528;2023-03-01T00:18:00;102400.0;;;1.7;74.0
78679;BME280;67994;59.334;13.528;2023-03-01T00:19:01;102400.0;;;1.6;74.1
78679;BME280;67994;59.334;13.528;2023-03-01T00:20:00;102400.0;;;1.7;73.9
78679;BME280;67994;59.334;13.528;2023-03-01T00:21:01;102400.0;;;1.6;74.0
78679;BME280;67994;59.334;13.528;2023-03-01T00:22:00;102400.0;;;1.5;74.2
78679;BME280;67994;59.334;13.528;2023-03-01T00:23:00;102400.0;;;1.6;74.2
78679;BME280;67994;59.334;13.528;2023-03-01T00:24:01;102400.0;;;1.5;74.4
78679;BME280;67994;59.334;13.528;2023-03-01T00:25:00;102400.0;;;1.5;74.3
78679;BME280;67994;59.334;13.528;2023-03-01T00:26:01;102400.0;;;1.6;74.2
78679;BME280;67994;59.334;13.528;2023-03-01T00:27:00;102400.0;;;1.5;74.3
78679;BME280;67994;59.334;13.528;2023-03-01T00:28:00;102400.0;;;1.6;74.5
78679;BME280;67994;59.334;13.528;2023-03-01T00:29:00;102400.0;;;1.5;74.3
78679;BME280;67994;59.334;13.528;2023-03-01T00:30:00;102400.0;;;1.6;74.2
78679;BME280;67994;59.334;13.528;2023-03-01T00:31:03;102400.0;;;1.5;74.2
78679;BME280;67994;59.334;13.528;2023-03-01T00:32:00;102400.0;;;1.5;74.4
78679;BME280;67994;59.334;13.528;2023-03-01T00:33:00;102400.0;;;1.5;74.5
78679;BME280;67994;59.334;13.528;2023-03-01T00:34:02;102400.0;;;1.5;74.4
78679;BME280;67994;59.334;13.528;2023-03-01T00:35:00;102400.0;;;1.5;74.4
78679;BME280;67994;59.334;13.528;2023-03-01T00:36:00;102400.0;;;1.5;74.4
78679;BME280;67994;59.334;13.528;2023-03-01T00:37:00;102400.0;;;1.5;74.5
78679;BME280;67994;59.334;13.528;2023-03-01T00:38:01;102400.0;;;1.6;74.0
78679;BME280;67994;59.334;13.528;2023-03-01T00:39:01;102400.0;;;1.6;73.9
78679;BME280;67994;59.334;13.528;2023-03-01T00:40:00;102400.0;;;1.5;74.0
78679;BME280;67994;59.334;13.528;2023-03-01T00:41:02;102400.0;;;1.4;74.5
78679;BME280;67994;59.334;13.528;2023-03-01T00:42:00;102400.0;;;1.4;74.4
78679;BME280;67994;59.334;13.528;2023-03-01T00:43:01;102400.0;;;1.5;74.1
78679;BME280;67994;59.334;13.528;2023-03-01T00:44:00;102400.0;;;1.6;74.0
78679;BME280;67994;59.334;13.528;2023-03-01T00:45:00;102400.0;;;1.5;74.3
78679;BME280;67994;59.334;13.528;2023-03-01T00:46:01;102400.0;;;1.4;74.4
78679;BME280;67994;59.334;13.528;2023-03-01T00:47:00;102400.0;;;1.5;74.3
78679;BME280;67994;59.334;13.528;2023-03-01T00:48:00;102400.0;;;1.6;74.0
78679;BME280;67994;59.334;13.528;2023-03-01T00:49:00;102400.0;;;1.5;74.3
78679;BME280;67994;59.334;13.528;2023-03-01T00:50:00;102400.0;;;1.4;74.8
78679;BME280;67994;59.334;13.528;2023-03-01T00:51:04;102400.0;;;1.4;74.5
78679;BME280;67994;59.334;13.528;2023-03-01T00:52:00;102400.0;;;1.6;74.0
78679;BME280;67994;59.334;13.528;2023-03-01T00:53:00;102400.0;;;1.6;74.0
78679;BME280;67994;59.334;13.528;2023-03-01T00:54:01;102400.0;;;1.6;74.1
78679;BME280;67994;59.334;13.528;2023-03-01T00:55:00;102400.0;;;1.4;74.3
78679;BME280;67994;59.334;13.528;2023-03-01T00:56:00;102400.0;;;1.4;74.6
78679;BME280;67994;59.334;13.528;2023-03-01T00:57:00;102400.0;;;1.4;74.7
78679;BME280;67994;59.334;13.528;2023-03-01T00:58:00;102400.0;;;1.4;74.9
78679;BME280;67994;59.334;13.528;2023-03-01T00:59:01;102400.0;;;1.4;74.7
78679;BME280;67994;59.334;13.528;2023-03-01T01:00:00;102400.0;;;1.4;74.8
78679;BME280;67994;59.334;13.528;2023-03-01T01:01:06;102400.0;;;1.3;74.7
78679;BME280;67994;59.334;13.528;2023-03-01T01:02:00;102400.0;;;1.4;74.7
78679;BME280;67994;59.334;13.528;2023-03-01T01:03:00;102400.0;;;1.4;74.6
78679;BME280;67994;59.334;13.528;2023-03-01T01:04:02;102400.0;;;1.5;74.4
78679;BME280;67994;59.334;13.528;2023-03-01T01:05:00;102400.0;;;1.3;74.6
78679;BME280;67994;59.334;13.528;2023-03-01T01:06:00;102400.0;;;1.4;74.6
78679;BME280;67994;59.334;13.528;2023-03-01T01:07:00;102400.0;;;1.3;74.7
78679;BME280;67994;59.334;13.528;2023-03-01T01:08:00;102400.0;;;1.4;74.6
78679;BME280;67994;59.334;13.528;2023-03-01T01:09:02;102400.0;;;1.4;74.5
78679;BME280;67994;59.334;13.528;2023-03-01T01:10:00;102400.0;;;1.4;74.5
78679;BME280;67994;59.334;13.528;2023-03-01T01:11:00;102400.0;;;1.3;74.7
78679;BME280;67994;59.334;13.528;2023-03-01T01:12:00;102400.0;;;1.4;74.5
78679;BME280;67994;59.334;13.528;2023-03-01T01:13:00;102400.0;;;1.3;74.6
78679;BME280;67994;59.334;13.528;2023-03-01T01:14:00;102400.0;;;1.3;74.5
78679;BME280;67994;59.334;13.528;2023-03-01T01:15:00;102400.0;;;1.3;74.4
78679;BME280;67994;59.334;13.528;2023-03-01T01:16:00;102400.0;;;1.3;74.4
78679;BME280;67994;59.334;13.528;2023-03-01T01:17:00;102400.0;;;1.3;74.4
78679;BME280;67994;59.334;13.528;2023-03-01T01:18:00;102400.0;;;1.3;74.8
78679;BME280;67994;59.334;13.528;2023-03-01T01:19:00;102400.0;;;1.3;74.5
78679;BME280;67994;59.334;13.528;2023-03-01T01:20:00;102400.0;;;1.3;74.6
78679;BME280;67994;59.334;13.528;2023-03-01T01:21:04;102400.0;;;1.2;74.7
78679;BME280;67994;59.334;13.528;2023-03-01T01:22:00;102400.0;;;1.3;74.6
78679;BME280;67994;59.334;13.528;2023-03-01T01:23:00;102400.0;;;1.3;74.5
78679;BME280;67994;59.334;13.528;2023-03-01T01:24:02;102400.0;;;1.3;74.5
78679;BME280;67994;59.334;13.528;2023-03-01T01:25:00;102400.0;;;1.3;74.1
78679;BME280;67994;59.334;13.528;2023-03-01T01:26:04;102400.0;;;1.3;74.2
78679;BME280;67994;59.334;13.528;2023-03-01T01:27:00;102400.0;;;1.3;74.2
78679;BME280;67994;59.334;13.528;2023-03-01T01:28:00;102400.0;;;1.3;74.3
78679;BME280;67994;59.334;13.528;2023-03-01T01:29:01;102400.0;;;1.3;74.2
78679;BME280;67994;59.334;13.528;2023-03-01T01:30:01;102400.0;;;1.2;74.4
78679;BME280;67994;59.334;13.528;2023-03-01T01:31:00;102400.0;;;1.2;74.6
78679;BME280;67994;59.334;13.528;2023-03-01T01:32:00;102400.0;;;1.3;74.7
78679;BME280;67994;59.334;13.528;2023-03-01T01:33:00;102400.0;;;1.1;74.9
78679;BME280;67994;59.334;13.528;2023-03-01T01:34:02;102400.0;;;1.2;74.8
78679;BME280;67994;59.334;13.528;2023-03-01T01:35:00;102400.0;;;1.1;74.7
78679;BME280;67994;59.334;13.528;2023-03-01T01:36:00;102400.0;;;1.2;74.6
78679;BME280;67994;59.334;13.528;2023-03-01T01:37:00;102400.0;;;1.2;74.5
78679;BME280;67994;59.334;13.528;2023-03-01T01:38:00;102400.0;;;1.3;74.2
78679;BME280;67994;59.334;13.528;2023-03-01T01:39:00;102400.0;;;1.2;74.3
78679;BME280;67994;59.334;13.528;2023-03-01T01:40:01;102400.0;;;1.2;74.5
78679;BME280;67994;59.334;13.528;2023-03-01T01:41:00;102400.0;;;1.2;74.5
78679;BME280;67994;59.334;13.528;2023-03-01T01:42:00;102400.0;;;1.2;74.4
78679;BME280;67994;59.334;13.528;2023-03-01T01:43:00;102400.0;;;1.2;74.6
78679;BME280;67994;59.334;13.528;2023-03-01T01:44:12;102400.0;;;1.2;74.3
78679;BME280;67994;59.334;13.528;2023-03-01T01:46:02;102400.0;;;1.1;74.6
78679;BME280;67994;59.334;13.528;2023-03-01T01:47:02;102400.0;;;1.2;74.3
78679;BME280;67994;59.334;13.528;2023-03-01T01:48:03;102400.0;;;1.2;74.5
78679;BME280;67994;59.334;13.528;2023-03-01T01:49:02;102400.0;;;1.1;74.4
78679;BME280;67994;59.334;13.528;2023-03-01T01:50:00;102400.0;;;1.2;74.3
78679;BME280;67994;59.334;13.528;2023-03-01T01:51:00;102400.0;;;1.2;74.8
78679;BME280;67994;59.334;13.528;2023-03-01T01:52:04;102400.0;;;1.2;74.4
78679;BME280;67994;59.334;13.528;2023-03-01T01:53:00;102400.0;;;1.1;74.4
78679;BME280;67994;59.334;13.528;2023-03-01T01:54:00;102400.0;;;1.1;74.6
78679;BME280;67994;59.334;13.528;2023-03-01T01:55:04;102400.0;;;1.1;74.6
78679;BME280;67994;59.334;13.528;2023-03-01T01:56:01;102400.0;;;1.1;74.4
78679;BME280;67994;59.334;13.528;2023-03-01T01:57:03;102400.0;;;1.0;74.3
78679;BME280;67994;59.334;13.528;2023-03-01T01:58:02;102400.0;;;1.1;74.2
78679;BME280;67994;59.334;13.528;2023-03-01T01:59:01;102400.0;;;1.2;74.2
78679;BME280;67994;59.334;13.528;2023-03-01T02:00:05;102400.0;;;1.0;74.4
78679;BME280;67994;59.334;13.528;2023-03-01T02:01:00;102400.0;;;1.0;74.4
78679;BME280;67994;59.334;13.528;2023-03-01T02:02:02;102400.0;;;1.0;74.5
78679;BME280;67994;59.334;13.528;2023-03-01T02:03:04;102400.0;;;1.1;74.5
78679;BME280;67994;59.334;13.528;2023-03-01T02:04:00;102400.0;;;1.1;74.3
78679;BME280;67994;59.334;13.528;2023-03-01T02:05:05;102400.0;;;1.0;74.2
78679;BME280;67994;59.334;13.528;2023-03-01T02:06:04;102400.0;;;0.9;74.5
78679;BME280;67994;59.334;13.528;2023-03-01T02:07:05;102400.0;;;1.1;74.4
78679;BME280;67994;59.334;13.528;2023-03-01T02:08:00;102400.0;;;1.0;74.5
78679;BME280;67994;59.334;13.528;2023-03-01T02:09:05;102400.0;;;0.9;74.4
78679;BME280;67994;59.334;13.528;2023-03-01T02:10:00;102400.0;;;0.9;74.7
78679;BME280;67994;59.334;13.528;2023-03-01T02:11:00;102400.0;;;0.9;74.8
78679;BME280;67994;59.334;13.528;2023-03-01T02:12:01;102400.0;;;0.9;74.9
78679;BME280;67994;59.334;13.528;2023-03-01T02:13:01;102400.0;;;0.8;75.0
78679;BME280;67994;59.334;13.528;2023-03-01T02:14:00;102400.0;;;0.9;75.1
78679;BME280;67994;59.334;13.528;2023-03-01T02:15:00;102400.0;;;0.9;75.0
78679;BME280;67994;59.334;13.528;2023-03-01T02:16:03;102400.0;;;0.9;75.1
78679;BME280;67994;59.334;13.528;2023-03-01T02:17:00;102400.0;;;0.8;75.2
78679;BME280;67994;59.334;13.528;2023-03-01T02:18:01;102400.0;;;0.9;75.2
78679;BME280;67994;59.334;13.528;2023-03-01T02:19:03;102400.0;;;0.9;75.2
78679;BME280;67994;59.334;13.528;2023-03-01T02:20:10;102400.0;;;0.8;75.3
78679;BME280;67994;59.334;13.528;2023-03-01T02:21:08;102400.0;;;0.8;75.3
78679;BME280;67994;59.334;13.528;2023-03-01T02:22:04;102400.0;;;0.7;75.3
78679;BME280;67994;59.334;13.528;2023-03-01T02:23:00;102400.0;;;0.7;75.4
78679;BME280;67994;59.334;13.528;2023-03-01T02:24:07;102400.0;;;0.7;75.3
78679;BME280;67994;59.334;13.528;2023-03-01T02:25:07;102400.0;;;0.7;75.4
78679;BME280;67994;59.334;13.528;2023-03-01T02:26:03;102400.0;;;0.7;75.2
78679;BME280;67994;59.334;13.528;2023-03-01T02:27:00;102400.0;;;0.7;75.2
78679;BME280;67994;59.334;13.528;2023-03-01T02:28:04;102400.0;;;0.6;75.5
78679;BME280;67994;59.334;13.528;2023-03-01T02:29:00;102400.0;;;0.6;75.6
78679;BME280;67994;59.334;13.528;2023-03-01T02:30:00;102400.0;;;0.6;75.6
78679;BME280;67994;59.334;13.528;2023-03-01T02:31:01;102400.0;;;0.6;75.5
78679;BME280;67994;59.334;13.528;2023-03-01T02:32:02;102400.0;;;0.6;75.5
78679;BME280;67994;59.334;13.528;2023-03-01T02:33:02;102400.0;;;0.5;75.5
78679;BME280;67994;59.334;13.528;2023-03-01T02:34:01;102400.0;;;0.6;75.5
78679;BME280;67994;59.334;13.528;2023-03-01T02:35:01;102400.0;;;0.6;75.7
78679;BME280;67994;59.334;13.528;2023-03-01T02:36:01;102400.0;;;0.6;75.5
78679;BME280;67994;59.334;13.528;2023-03-01T02:37:02;102400.0;;;0.5;75.5
78679;BME280;67994;59.334;13.528;2023-03-01T02:38:01;102400.0;;;0.5;75.7
78679;BME280;67994;59.334;13.528;2023-03-01T02:39:02;102400.0;;;0.4;75.8
78679;BME280;67994;59.334;13.528;2023-03-01T02:40:04;102400.0;;;0.4;75.9
78679;BME280;67994;59.334;13.528;2023-03-01T02:41:02;102400.0;;;0.3;75.9
78679;BME280;67994;59.334;13.528;2023-03-01T02:42:01;102400.0;;;0.4;76.0
78679;BME280;67994;59.334;13.528;2023-03-01T02:43:00;102400.0;;;0.4;75.9
78679;BME280;67994;59.334;13.528;2023-03-01T02:44:00;102400.0;;;0.5;75.7
78679;BME280;67994;59.334;13.528;2023-03-01T02:45:00;102400.0;;;0.4;75.9
78679;BME280;67994;59.334;13.528;2023-03-01T02:46:04;102400.0;;;0.4;75.9
78679;BME280;67994;59.334;13.528;2023-03-01T02:47:02;102400.0;;;0.4;76.0
78679;BME280;67994;59.334;13.528;2023-03-01T02:48:00;102400.0;;;0.4;75.9
78679;BME280;67994;59.334;13.528;2023-03-01T02:49:00;102400.0;;;0.4;75.9
78679;BME280;67994;59.334;13.528;2023-03-01T02:50:00;102400.0;;;0.5;75.7
78679;BME280;67994;59.334;13.528;2023-03-01T02:51:05;102400.0;;;0.5;75.7
78679;BME280;67994;59.334;13.528;2023-03-01T02:52:06;102400.0;;;0.5;75.7
78679;BME280;67994;59.334;13.528;2023-03-01T02:53:03;102400.0;;;0.5;75.5
78679;BME280;67994;59.334;13.528;2023-03-01T02:54:08;102400.0;;;0.6;75.3
78679;BME280;67994;59.334;13.528;2023-03-01T02:55:03;102400.0;;;0.6;75.2
78679;BME280;67994;59.334;13.528;2023-03-01T02:56:00;102400.0;;;0.6;75.0
78679;BME280;67994;59.334;13.528;2023-03-01T02:57:00;102400.0;;;0.4;74.8
78679;BME280;67994;59.334;13.528;2023-03-01T02:58:02;102400.0;;;0.4;74.9
78679;BME280;67994;59.334;13.528;2023-03-01T02:59:00;102400.0;;;0.3;75.1
78679;BME280;67994;59.334;13.528;2023-03-01T03:00:03;102400.0;;;0.2;75.5
78679;BME280;67994;59.334;13.528;2023-03-01T03:01:00;102400.0;;;0.1;75.6
78679;BME280;67994;59.334;13.528;2023-03-01T03:02:00;102400.0;;;0.1;76.0
78679;BME280;67994;59.334;13.528;2023-03-01T03:03:00;102400.0;;;-0.0;76.2
78679;BME280;67994;59.334;13.528;2023-03-01T03:04:00;102400.0;;;0.1;76.6
78679;BME280;67994;59.334;13.528;2023-03-01T03:05:00;102400.0;;;0.1;76.5
78679;BME280;67994;59.334;13.528;2023-03-01T03:06:00;102400.0;;;0.1;76.6
78679;BME280;67994;59.334;13.528;2023-03-01T03:07:00;102400.0;;;-0.0;76.9
78679;BME280;67994;59.334;13.528;2023-03-01T03:08:01;102400.0;;;-0.0;77.0
78679;BME280;67994;59.334;13.528;2023-03-01T03:09:00;102400.0;;;0.1;77.1
78679;BME280;67994;59.334;13.528;2023-03-01T03:10:00;102400.0;;;0.2;76.8
78679;BME280;67994;59.334;13.528;2023-03-01T03:11:00;102400.0;;;0.2;76.9
78679;BME280;67994;59.334;13.528;2023-03-01T03:12:00;102400.0;;;0.3;76.5
78679;BME280;67994;59.334;13.528;2023-03-01T03:13:02;102400.0;;;0.2;76.8
78679;BME280;67994;59.334;13.528;2023-03-01T03:14:00;102400.0;;;0.2;76.7
78679;BME280;67994;59.334;13.528;2023-03-01T03:15:00;102400.0;;;0.2;76.9
78679;BME280;67994;59.334;13.528;2023-03-01T03:16:02;102400.0;;;0.1;77.0
78679;BME280;67994;59.334;13.528;2023-03-01T03:17:00;102400.0;;;0.1;77.0
78679;BME280;67994;59.334;13.528;2023-03-01T03:18:00;102400.0;;;-0.0;76.8
78679;BME280;67994;59.334;13.528;2023-03-01T03:19:00;102400.0;;;-0.1;76.7
78679;BME280;67994;59.334;13.528;2023-03-01T03:20:00;102400.0;;;-0.1;76.6
78679;BME280;67994;59.334;13.528;2023-03-01T03:21:00;102400.0;;;-0.0;76.6
78679;BME280;67994;59.334;13.528;2023-03-01T03:22:00;102400.0;;;0.0;76.9
78679;BME280;67994;59.334;13.528;2023-03-01T03:23:00;102400.0;;;0.0;76.8
78679;BME280;67994;59.334;13.528;2023-03-01T03:24:00;102400.0;;;-0.1;77.4
78679;BME280;67994;59.334;13.528;2023-03-01T03:25:00;102400.0;;;-0.1;77.3
78679;BME280;67994;59.334;13.528;2023-03-01T03:26:00;102400.0;;;-0.1;76.8
78679;BME280;67994;59.334;13.528;2023-03-01T03:27:00;102400.0;;;-0.0;76.9
78679;BME280;67994;59.334;13.528;2023-03-01T03:28:00;102400.0;;;0.0;76.7
78679;BME280;67994;59.334;13.528;2023-03-01T03:29:00;102400.0;;;-0.0;76.9
78679;BME280;67994;59.334;13.528;2023-03-01T03:30:00;102400.0;;;-0.1;77.4
78679;BME280;67994;59.334;13.528;2023-03-01T03:31:01;102400.0;;;-0.1;77.1
78679;BME280;67994;59.334;13.528;2023-03-01T03:32:00;102400.0;;;-0.1;77.5
78679;BME280;67994;59.334;13.528;2023-03-01T03:33:00;102400.0;;;-0.2;77.3
78679;BME280;67994;59.334;13.528;2023-03-01T03:34:00;102400.0;;;-0.2;77.5
78679;BME280;67994;59.334;13.528;2023-03-01T03:35:00;102400.0;;;-0.2;77.1
78679;BME280;67994;59.334;13.528;2023-03-01T03:36:00;102400.0;;;-0.2;77.1
78679;BME280;67994;59.334;13.528;2023-03-01T03:37:00;102400.0;;;-0.2;77.2
78679;BME280;67994;59.334;13.528;2023-03-01T03:38:04;102400.0;;;-0.4;77.1
78679;BME280;67994;59.334;13.528;2023-03-01T03:39:00;102400.0;;;-0.5;77.4
78679;BME280;67994;59.334;13.528;2023-03-01T03:40:00;102400.0;;;-0.4;77.0
78679;BME280;67994;59.334;13.528;2023-03-01T03:41:02;102400.0;;;-0.5;77.2
78679;BME280;67994;59.334;13.528;2023-03-01T03:42:00;102400.0;;;-0.4;77.8
78679;BME280;67994;59.334;13.528;2023-03-01T03:43:00;102400.0;;;-0.3;76.9
78679;BME280;67994;59.334;13.528;2023-03-01T03:44:00;102400.0;;;-0.5;77.0
78679;BME280;67994;59.334;13.528;2023-03-01T03:45:00;102400.0;;;-0.6;77.7
78679;BME280;67994;59.334;13.528;2023-03-01T03:46:01;102400.0;;;-0.5;77.6
78679;BME280;67994;59.334;13.528;2023-03-01T03:47:00;102400.0;;;-0.5;78.0
78679;BME280;67994;59.334;13.528;2023-03-01T03:48:01;102400.0;;;-0.7;77.7
78679;BME280;67994;59.334;13.528;2023-03-01T03:49:00;102400.0;;;-0.5;78.2
78679;BME280;67994;59.334;13.528;2023-03-01T03:50:00;102400.0;;;-0.6;78.1
78679;BME280;67994;59.334;13.528;2023-03-01T03:51:00;102400.0;;;-0.7;78.6
78679;BME280;67994;59.334;13.528;2023-03-01T03:52:00;102400.0;;;-0.7;78.7
78679;BME280;67994;59.334;13.528;2023-03-01T03:53:01;102400.0;;;-0.6;78.3
78679;BME280;67994;59.334;13.528;2023-03-01T03:54:00;102400.0;;;-0.6;78.1
78679;BME280;67994;59.334;13.528;2023-03-01T03:55:00;102400.0;;;-0.6;78.3
78679;BME280;67994;59.334;13.528;2023-03-01T03:56:00;102400.0;;;-0.6;78.4
78679;BME280;67994;59.334;13.528;2023-03-01T03:57:00;102400.0;;;-0.6;78.4
78679;BME280;67994;59.334;13.528;2023-03-01T03:58:02;102400.0;;;-0.5;78.7
78679;BME280;67994;59.334;13.528;2023-03-01T03:59:00;102400.0;;;-0.5;78.6
78679;BME280;67994;59.334;13.528;2023-03-01T04:00:00;102400.0;;;-0.6;78.6
78679;BME280;67994;59.334;13.528;2023-03-01T04:01:00;102400.0;;;-0.6;78.6
78679;BME280;67994;59.334;13.528;2023-03-01T04:02:00;102400.0;;;-0.6;78.6
78679;BME280;67994;59.334;13.528;2023-03-01T04:03:00;102400.0;;;-0.5;78.5
78679;BME280;67994;59.334;13.528;2023-03-01T04:04:00;102400.0;;;-0.8;78.6
78679;BME280;67994;59.334;13.528;2023-03-01T04:05:00;102400.0;;;-0.6;78.2
78679;BME280;67994;59.334;13.528;2023-03-01T04:06:01;102400.0;;;-0.9;78.9
78679;BME280;67994;59.334;13.528;2023-03-01T04:07:00;102400.0;;;-0.9;78.9
78679;BME280;67994;59.334;13.528;2023-03-01T04:08:00;102400.0;;;-0.7;79.0
78679;BME280;67994;59.334;13.528;2023-03-01T04:09:00;102400.0;;;-0.8;79.2
78679;BME280;67994;59.334;13.528;2023-03-01T04:10:00;102400.0;;;-0.7;79.2
78679;BME280;67994;59.334;13.528;2023-03-01T04:11:02;102400.0;;;-0.8;79.0
78679;BME280;67994;59.334;13.528;2023-03-01T04:12:00;102400.0;;;-0.8;79.0
78679;BME280;67994;59.334;13.528;2023-03-01T04:13:00;102400.0;;;-0.6;78.9
78679;BME280;67994;59.334;13.528;2023-03-01T04:14:00;102400.0;;;-0.8;78.9
78679;BME280;67994;59.334;13.528;2023-03-01T04:15:00;102400.0;;;-0.8;79.4
78679;BME280;67994;59.334;13.528;2023-03-01T04:16:00;102400.0;;;-0.9;79.2
78679;BME280;67994;59.334;13.528;2023-03-01T04:17:00;102400.0;;;-0.9;79.7
78679;BME280;67994;59.334;13.528;2023-03-01T04:18:00;102400.0;;;-0.8;79.3
78679;BME280;67994;59.334;13.528;2023-03-01T04:19:00;102400.0;;;-0.9;79.7
78679;BME280;67994;59.334;13.528;2023-03-01T04:20:00;102400.0;;;-0.8;79.4
78679;BME280;67994;59.334;13.528;2023-03-01T04:21:00;102400.0;;;-0.8;79.3
78679;BME280;67994;59.334;13.528;2023-03-01T04:22:00;102400.0;;;-0.8;79.7
78679;BME280;67994;59.334;13.528;2023-03-01T04:23:02;102400.0;;;-0.8;79.8
78679;BME280;67994;59.334;13.528;2023-03-01T04:24:00;102400.0;;;-0.8;79.9
78679;BME280;67994;59.334;13.528;2023-03-01T04:25:00;102400.0;;;-0.8;80.3
78679;BME280;67994;59.334;13.528;2023-03-01T04:26:00;102400.0;;;-0.8;80.2
78679;BME280;67994;59.334;13.528;2023-03-01T04:27:00;102400.0;;;-0.9;80.3
78679;BME280;67994;59.334;13.528;2023-03-01T04:28:00;102400.0;;;-0.9;80.1
78679;BME280;67994;59.334;13.528;2023-03-01T04:29:00;102400.0;;;-0.8;79.9
78679;BME280;67994;59.334;13.528;2023-03-01T04:30:01;102400.0;;;-0.9;80.1
78679;BME280;67994;59.334;13.528;2023-03-01T04:31:04;102400.0;;;-1.0;79.9
78679;BME280;67994;59.334;13.528;2023-03-01T04:32:00;102400.0;;;-1.0;79.9
78679;BME280;67994;59.334;13.528;2023-03-01T04:33:00;102400.0;;;-0.9;79.9
78679;BME280;67994;59.334;13.528;2023-03-01T04:34:00;102400.0;;;-0.9;80.4
78679;BME280;67994;59.334;13.528;2023-03-01T04:35:00;102400.0;;;-1.0;80.5
78679;BME280;67994;59.334;13.528;2023-03-01T04:36:00;102400.0;;;-0.9;80.3
78679;BME280;67994;59.334;13.528;2023-03-01T04:37:00;102400.0;;;-0.9;79.8
78679;BME280;67994;59.334;13.528;2023-03-01T04:38:00;102400.0;;;-1.0;80.3
78679;BME280;67994;59.334;13.528;2023-03-01T04:39:00;102400.0;;;-0.9;80.6
78679;BME280;67994;59.334;13.528;2023-03-01T04:40:00;102400.0;;;-0.9;80.3
78679;BME280;67994;59.334;13.528;2023-03-01T04:41:00;102400.0;;;-0.8;80.0
78679;BME280;67994;59.334;13.528;2023-03-01T04:42:00;102400.0;;;-0.8;79.7
78679;BME280;67994;59.334;13.528;2023-03-01T04:43:01;102400.0;;;-0.9;79.7
78679;BME280;67994;59.334;13.528;2023-03-01T04:44:00;102400.0;;;-0.9;79.9
78679;BME280;67994;59.334;13.528;2023-03-01T04:45:00;102400.0;;;-0.8;79.9
78679;BME280;67994;59.334;13.528;2023-03-01T04:46:01;102400.0;;;-0.8;79.8
78679;BME280;67994;59.334;13.528;2023-03-01T04:47:00;102400.0;;;-0.9;79.8
78679;BME280;67994;59.334;13.528;2023-03-01T04:48:00;102400.0;;;-1.0;79.7
78679;BME280;67994;59.334;13.528;2023-03-01T04:49:00;102400.0;;;-0.9;79.9
78679;BME280;67994;59.334;13.528;2023-03-01T04:50:00;102400.0;;;-0.9;80.0
78679;BME280;67994;59.334;13.528;2023-03-01T04:51:00;102400.0;;;-0.9;80.2
78679;BME280;67994;59.334;13.528;2023-03-01T04:52:00;102400.0;;;-0.9;80.2
78679;BME280;67994;59.334;13.528;2023-03-01T04:53:01;102400.0;;;-1.0;80.7
78679;BME280;67994;59.334;13.528;2023-03-01T04:54:00;102400.0;;;-1.0;80.8
78679;BME280;67994;59.334;13.528;2023-03-01T04:55:00;102400.0;;;-1.1;80.8
78679;BME280;67994;59.334;13.528;2023-03-01T04:56:00;102400.0;;;-1.1;80.8
78679;BME280;67994;59.334;13.528;2023-03-01T04:57:01;102400.0;;;-1.0;80.6
78679;BME280;67994;59.334;13.528;2023-03-01T04:58:00;102400.0;;;-1.0;80.4
78679;BME280;67994;59.334;13.528;2023-03-01T04:59:00;102400.0;;;-0.9;80.0
78679;BME280;67994;59.334;13.528;2023-03-01T05:00:00;102400.0;;;-0.9;79.9
78679;BME280;67994;59.334;13.528;2023-03-01T05:01:00;102400.0;;;-1.0;80.1
78679;BME280;67994;59.334;13.528;2023-03-01T05:02:00;102400.0;;;-1.0;80.4
78679;BME280;67994;59.334;13.528;2023-03-01T05:03:00;102400.0;;;-1.1;80.0
78679;BME280;67994;59.334;13.528;2023-03-01T05:04:01;102400.0;;;-1.1;80.1
78679;BME280;67994;59.334;13.528;2023-03-01T05:05:00;102400.0;;;-1.2;80.4
78679;BME280;67994;59.334;13.528;2023-03-01T05:06:00;102400.0;;;-1.2;80.4
78679;BME280;67994;59.334;13.528;2023-03-01T05:07:00;102400.0;;;-1.2;80.7
78679;BME280;67994;59.334;13.528;2023-03-01T05:08:02;102400.0;;;-1.2;80.5
78679;BME280;67994;59.334;13.528;2023-03-01T05:09:00;102400.0;;;-1.1;80.6
78679;BME280;67994;59.334;13.528;2023-03-01T05:10:00;102400.0;;;-1.1;80.7
78679;BME280;67994;59.334;13.528;2023-03-01T05:11:00;102400.0;;;-1.1;80.7
78679;BME280;67994;59.334;13.528;2023-03-01T05:12:00;102400.0;;;-1.2;80.6
78679;BME280;67994;59.334;13.528;2023-03-01T05:13:01;102400.0;;;-1.1;80.7
78679;BME280;67994;59.334;13.528;2023-03-01T05:14:00;102400.0;;;-1.1;80.5
78679;BME280;67994;59.334;13.528;2023-03-01T05:15:00;102400.0;;;-1.1;80.5
78679;BME280;67994;59.334;13.528;2023-03-01T05:16:01;102400.0;;;-1.2;80.6
78679;BME280;67994;59.334;13.528;2023-03-01T05:17:00;102400.0;;;-1.2;80.7
78679;BME280;67994;59.334;13.528;2023-03-01T05:18:00;102400.0;;;-1.2;80.6
78679;BME280;67994;59.334;13.528;2023-03-01T05:19:00;102400.0;;;-1.1;80.9
78679;BME280;67994;59.334;13.528;2023-03-01T05:20:00;102400.0;;;-1.1;80.2
78679;BME280;67994;59.334;13.528;2023-03-01T05:21:03;102400.0;;;-1.1;79.7
78679;BME280;67994;59.334;13.528;2023-03-01T05:22:00;102400.0;;;-1.1;79.6
78679;BME280;67994;59.334;13.528;2023-03-01T05:23:00;102400.0;;;-1.0;79.9
78679;BME280;67994;59.334;13.528;2023-03-01T05:24:00;102400.0;;;-1.2;80.3
78679;BME280;67994;59.334;13.528;2023-03-01T05:25:00;102400.0;;;-1.2;80.4